Flight Track Log - Related Links

Times and Time Zones

All times are in EDT time to prevent confusion due to time zone crossing. See the AWE412 flight status page for this flight to view local times or setup timezone preferences in your user account.

Time Position Orientation Groundspeed Altitude Reporting Facility
EDT Latitude Longitude Course Direction KTS MPH feet Rate Location/Type
Sat 07:29:57 PM 20.9167 -156.4167 74° East 160 184 1,300  Level Honolulu Center
Sat 07:30:58 PM 20.9667 -156.4000 17° North 210 242 3,000 2,033 Climbing Honolulu Center
Sat 07:31:58 PM 21.0167 -156.3500 43° Northeast 260 299 5,400 2,450 Climbing Honolulu Center
Sat 07:32:00 PM 20.9775 -155.9453 73° East  Level FlightAware Approximate
Sat 07:32:58 PM 21.0833 -156.3167 25° Northeast 280 322 7,900  Level Honolulu Center
Sat 07:33:00 PM 21.0232 -155.7886 76° East  Level FlightAware Approximate
Sat 07:33:58 PM 21.1500 -156.2500 43° Northeast 300 345 10,500  Level Honolulu Center
Sat 07:34:00 PM 21.0600 -155.6291 76° East  Level FlightAware Approximate
Sat 07:34:58 PM 21.1667 -156.1667 78° East 340 391 11,800  Level Honolulu Center
Sat 07:35:00 PM 21.1033 -155.4715 74° East  Level FlightAware Approximate
Sat 07:35:58 PM 21.1833 -156.0667 80° East 360 414 14,300  Level Honolulu Center
Sat 07:36:58 PM 21.2000 -155.9500 81° East 390 449 16,800 2,281 Climbing Honolulu Center
Sat 07:37:59 PM 21.2333 -155.8333 73° East 390 449 18,900 1,983 Climbing Honolulu Center
Sat 07:38:59 PM 21.2500 -155.7000 82° East 410 472 20,800 1,900 Climbing Honolulu Center
Sat 07:39:59 PM 21.2667 -155.5833 81° East 430 495 22,700 1,900 Climbing Honolulu Center
Sat 07:40:59 PM 21.3000 -155.4667 73° East 440 506 24,600 1,700 Climbing Honolulu Center
Sat 07:41:59 PM 21.3167 -155.3333 82° East 450 518 26,100 1,350 Climbing Honolulu Center
Sat 07:42:59 PM 21.3500 -155.2000 75° East 460 529 27,300 1,100 Climbing Honolulu Center
Sat 07:43:59 PM 21.3667 -155.0500 83° East 490 564 28,300 1,050 Climbing Honolulu Center
Sat 07:44:59 PM 21.4000 -154.9000 77° East 500 575 29,400 1,091 Climbing Honolulu Center
Sat 07:46:00 PM 21.4167 -154.7667 82° East 500 575 30,500 1,240 Climbing Honolulu Center
Sat 07:47:00 PM 21.4500 -154.6000 78° East 520 598 31,900 1,350 Climbing Honolulu Center
Sat 07:48:00 PM 21.4833 -154.4500 77° East 520 598 33,200 1,150 Climbing Honolulu Center
Sat 07:49:00 PM 21.5000 -154.3000 83° East 510 587 34,200 900 Climbing Honolulu Center
Sat 07:50:00 PM 21.5333 -154.1500 77° East 520 598 35,000 700 Climbing Honolulu Center
Sat 07:51:00 PM 21.5667 -154.0167 75° East 520 598 35,600 550 Climbing Honolulu Center
Sat 07:52:00 PM 21.5833 -153.8500 84° East 540 621 36,100 550 Climbing Honolulu Center
Sat 07:53:00 PM 21.6167 -153.6833 78° East 550 633 36,700 446 Climbing Honolulu Center
Sat 07:54:01 PM 21.6500 -153.5167 78° East 550 633 37,000 149 Climbing Honolulu Center
Sat 07:55:01 PM 21.6667 -153.3667 83° East 550 633 37,000  Level Honolulu Center
Sat 07:56:01 PM 21.7000 -153.2000 78° East 550 633 37,000  Level Honolulu Center
Sat 07:57:01 PM 21.7500 -153.0333 72° East 570 656 37,000  Level Honolulu Center
Sat 07:58:01 PM 21.8167 -152.9000 62° Northeast 560 644 37,000  Level Honolulu Center
Sat 07:59:02 PM 21.9000 -152.7500 59° Northeast 550 633 37,000  Level Honolulu Center
Sat 08:07:57 PM 22.3500 -151.8833 62° Northeast 559 643 37,000  Level Oakland Oceanic (ODAPS)
Sat 08:52:18 PM 25.2833 -145.5167 65° Northeast 571 657 37,000  Level Oakland Oceanic (ODAPS)
Sat 09:33:34 PM 27.9167 -138.8500 68° East 578 665 37,000  Level Oakland Oceanic (ODAPS)
Sat 10:12:57 PM 30.2833 -131.6333 71° East 606 697 37,000 -1 Level Oakland Oceanic (ODAPS)
Sat 10:50:59 PM 32.2369 -124.0169 77° East 593 682 36,900  Descending Los Angeles Center
Sat 10:51:00 PM 32.2868 -123.9170 77° East 606 697 37,000 98 Climbing FlightAware Transoceanic
Sat 10:52:00 PM 32.3233 -123.7339 77° East 606 697 37,000  Level FlightAware Transoceanic
Sat 10:52:01 PM 32.2817 -123.8317 74° East 592 681 37,000  Level Los Angeles Center
Sat 10:53:00 PM 32.3595 -123.5507 77° East 606 697 37,000  Level FlightAware Transoceanic
Sat 10:53:02 PM 32.3222 -123.6422 76° East 591 680 37,000  Level Los Angeles Center
Sat 10:54:00 PM 32.3955 -123.3672 77° East 606 697 37,000  Level FlightAware Transoceanic
Sat 10:54:04 PM 32.3647 -123.4525 75° East 592 681 37,000  Level Los Angeles Center
Sat 10:55:00 PM 32.4312 -123.1837 77° East 606 697 37,000  Level FlightAware Transoceanic
Sat 10:55:05 PM 32.4083 -123.2622 75° East 596 686 37,000  Level Los Angeles Center
Sat 10:56:00 PM 32.4636 -123.0159 77° East  Level FlightAware Approximate
Sat 10:56:06 PM 32.4483 -123.0722 76° East 596 686 37,000  Level Los Angeles Center
Sat 10:57:08 PM 32.4878 -122.8836 76° East 596 686 37,000 -49 Level Los Angeles Center
Sat 10:58:09 PM 32.5292 -122.6972 75° East 594 684 36,900  Descending Los Angeles Center
Sat 10:59:10 PM 32.5703 -122.5111 75° East 592 681 37,000 49 Climbing Los Angeles Center
Sat 11:00:12 PM 32.6197 -122.2858 75° East 592 681 37,000  Level Los Angeles Center
Sat 11:01:13 PM 32.6581 -122.1000 76° East 590 679 37,000 -49 Level Los Angeles Center
Sat 11:02:15 PM 32.6972 -121.9144 76° East 588 677 36,900  Descending Los Angeles Center
Sat 11:03:16 PM 32.7450 -121.7492 71° East 553 636 37,000 49 Climbing Los Angeles Center
Sat 11:04:17 PM 32.7817 -121.5642 77° East 569 655 37,000 244 Level Los Angeles Center
Sat 11:05:19 PM 32.8194 -121.3794 76° East 574 661 37,500 634 Climbing Los Angeles Center
Sat 11:06:20 PM 32.8567 -121.1944 76° East 574 661 38,300 738 Climbing Los Angeles Center
Sat 11:07:21 PM 32.8939 -121.0072 77° East 580 667 39,000 341 Climbing Los Angeles Center
Sat 11:08:23 PM 32.9378 -120.7853 77° East 579 666 39,000  Level Los Angeles Center
Sat 11:09:24 PM 32.9739 -120.5994 77° East 579 666 39,000  Level Los Angeles Center
Sat 11:10:26 PM 33.0086 -120.4142 77° East 577 664 39,000  Level Los Angeles Center
Sat 11:11:27 PM 33.0433 -120.2297 77° East 574 661 39,000  Level Los Angeles Center
Sat 11:12:29 PM 33.0783 -120.0447 77° East 574 661 39,000  Level Los Angeles Center
Sat 11:13:30 PM 33.1178 -119.8325 77° East 573 659 39,000  Level Los Angeles Center
Sat 11:14:32 PM 33.1517 -119.6492 78° East 572 658 39,000  Level Los Angeles Center
Sat 11:15:33 PM 33.1856 -119.4667 77° East 570 656 39,000  Level Los Angeles Center
Sat 11:16:34 PM 33.2206 -119.2833 77° East 570 656 39,000  Level Los Angeles Center
Sat 11:17:36 PM 33.2525 -119.1014 78° East 568 654 39,000  Level Los Angeles Center
Sat 11:18:37 PM 33.2861 -118.9194 77° East 567 652 39,000  Level Los Angeles Center
Sat 11:19:39 PM 33.3178 -118.7358 78° East 566 651 39,000  Level Los Angeles Center
Sat 11:20:40 PM 33.3567 -118.5172 78° East 568 654 39,000  Level Los Angeles Center
Sat 11:21:42 PM 33.3819 -118.3361 80° East 563 648 39,000  Level Los Angeles Center
Sat 11:22:43 PM 33.3944 -118.1492 85° East 566 651 39,000  Level Los Angeles Center
Sat 11:23:45 PM 33.4072 -117.9658 85° East 566 651 39,000  Level Los Angeles Center
Sat 11:24:46 PM 33.4206 -117.7842 85° East 557 641 39,000  Level Los Angeles Center
Sat 11:25:48 PM 33.4331 -117.6006 85° East 557 641 39,000  Level Los Angeles Center
Sat 11:26:49 PM 33.4478 -117.3794 85° East 558 642 39,000  Level Los Angeles Center
Sat 11:27:51 PM 33.4597 -117.1975 85° East 556 640 39,000  Level Los Angeles Center
Sat 11:28:52 PM 33.4714 -117.0328 85° East 549 632 39,000  Level Los Angeles Center
Sat 11:29:53 PM 33.4744 -116.8492 89° East 549 632 39,000  Level Los Angeles Center
Sat 11:30:55 PM 33.4731 -116.6697 90° East 543 625 39,000  Level Los Angeles Center
Sat 11:31:56 PM 33.4739 -116.4922 90° East 531 611 39,000  Level Los Angeles Center
Sat 11:32:58 PM 33.4753 -116.2761 89° East 534 615 39,000  Level Los Angeles Center
Sat 11:33:59 PM 33.4756 -116.0967 90° East 535 616 39,000  Level Los Angeles Center
Sat 11:35:01 PM 33.4764 -115.9194 90° East 534 615 39,000  Level Los Angeles Center
Sat 11:36:02 PM 33.4756 -115.7403 90° East 535 616 39,000 -49 Level Los Angeles Center
Sat 11:37:04 PM 33.4764 -115.5611 90° East 535 616 38,900 -49 Descending Los Angeles Center
Sat 11:38:05 PM 33.4736 -115.3808 91° East 539 620 38,900 -49 Level Los Angeles Center
Sat 11:39:06 PM 33.4722 -115.1994 90° East 540 621 38,800 -1,122 Descending Los Angeles Center
Sat 11:40:08 PM 33.4714 -115.0211 90° East 540 621 36,600 -2,195 Descending Los Angeles Center
Sat 11:41:09 PM 33.4700 -114.8408 90° East 545 627 34,300 -2,098 Descending Los Angeles Center
Sat 11:42:11 PM 33.4692 -114.6739 90° East 506 582 32,300 -2,244 Descending Los Angeles Center
Sat 11:43:12 PM 33.4686 -114.4750 90° East 496 571 29,700 -2,213 Descending Los Angeles Center
Sat 11:44:13 PM 33.4658 -114.3181 91° East 475 547 27,800 -1,805 Descending Los Angeles Center
Sat 11:45:15 PM 33.4639 -114.1606 91° East 474 545 26,000 -1,659 Descending Los Angeles Center
Sat 11:46:16 PM 33.4500 -114.0119 96° East 450 518 24,400 -1,171 Descending Los Angeles Center
Sat 11:47:18 PM 33.4211 -113.8717 104° East 437 503 23,600 -732 Descending Los Angeles Center
Sat 11:48:19 PM 33.3911 -113.7217 103° East 429 494 22,900 -639 Descending Los Angeles Center
Sat 11:49:20 PM 33.3625 -113.5844 104° East 426 490 22,300 -634 Descending Los Angeles Center
Sat 11:50:22 PM 33.3358 -113.4478 103° East 422 486 21,600 -1,268 Descending Los Angeles Center
Sat 11:51:23 PM 33.3075 -113.3128 104° East 422 486 19,700 -1,854 Descending Los Angeles Center
Sat 11:52:25 PM 33.2800 -113.1806 104° East 416 479 17,800 -1,333 Descending Los Angeles Center
Sat 11:53:47 PM 33.2767 -112.9969 91° East 390 449 16,500 -671 Descending Albuquerque Center
Sat 11:54:48 PM 33.2797 -112.8750 88° East 373 429 16,200 -541 Descending Albuquerque Center
Sat 11:55:49 PM 33.2822 -112.7558 89° East 365 420 15,400 -934 Descending Albuquerque Center
Sat 11:56:50 PM 33.2836 -112.6414 89° East 352 405 14,300 -1,131 Descending Albuquerque Center
Sat 11:57:51 PM 33.2878 -112.5372 87° East 332 382 13,100 -1,180 Descending Albuquerque Center
Sat 11:58:52 PM 33.2911 -112.4328 88° East 318 366 11,900 -1,131 Descending Albuquerque Center
Sat 11:59:53 PM 33.2947 -112.3311 88° East 310 357 10,800 -984 Descending Albuquerque Center
Sun 12:00:54 AM 33.3025 -112.2106 86° East 308 354 9,900 -787 Descending Albuquerque Center
Sun 12:01:55 AM 33.3089 -112.1181 85° East 286 329 9,200 -885 Descending Albuquerque Center
Sun 12:02:56 AM 33.3258 -112.0358 76° East 260 299 8,100 -1,033 Descending Albuquerque Center
Sun 12:03:57 AM 33.3458 -111.9556 73° East 257 296 7,100 -836 Descending Albuquerque Center
Sun 12:04:58 AM 33.3458 -111.8761 90° East 241 277 6,400 -1,033 Descending Albuquerque Center
Sun 12:05:59 AM 33.3569 -111.8094 79° East 221 254 5,000 -1,082 Descending Albuquerque Center
Sun 12:07:00 AM 33.4103 -111.8078 North 192 221 4,200 -793 Descending Albuquerque Center
Sun 12:08:00 AM 33.4292 -111.8603 293° West 180 207 3,400 -793 Descending Albuquerque Center
Sun 12:09:01 AM 33.4289 -111.9139 270° West 162 186 2,600 -738 Descending Albuquerque Center
Sun 12:10:02 AM 33.4292 -111.9575 270° West 137 158 1,900 -738 Descending Albuquerque Center
Sun 12:11:03 AM 33.4283 -112.0100 269° West 136 157 1,100 -787 Descending Albuquerque Center

Login

Don't have an account? Register now (free) for customized features, flight alerts, and more!